Flight Track Log - Related Links

Times and Time Zones

All times are in EDT time to prevent confusion due to time zone crossing. See the CTL16 flight status page for this flight to view local times or setup timezone preferences in your user account.

Time Position Orientation Groundspeed Altitude Reporting Facility
EDT Latitude Longitude Course Direction KTS MPH feet Rate Location/Type
Wed 08:46:49 PM 39.4000 -84.4500 47° Northeast 164 189 1,600  Level Cincinnati TRACON
Wed 08:47:27 PM 39.4117 -84.4339 47° Northeast 161 185 1,800 488 Climbing Indianapolis Center
Wed 08:48:15 PM 39.4342 -84.4036 46° Northeast 158 182 2,300 575 Climbing Indianapolis Center
Wed 08:48:40 PM 39.4494 -84.3822 47° Northeast 165 190 2,500 628 Climbing Indianapolis Center
Wed 08:49:41 PM 39.4800 -84.3403 47° Northeast 161 185 3,200 495 Climbing Indianapolis Center
Wed 08:50:17 PM 39.4950 -84.3181 49° Northeast 160 184 3,300 400 Climbing Indianapolis Center
Wed 08:50:41 PM 39.5106 -84.2983 44° Northeast 155 178 3,600 581 Climbing Indianapolis Center
Wed 08:51:19 PM 39.5250 -84.2781 47° Northeast 157 181 3,900 393 Climbing Indianapolis Center
Wed 08:51:42 PM 39.5389 -84.2589 47° Northeast 152 175 4,000 492 Climbing Indianapolis Center
Wed 08:52:00 PM 39.5216 -84.2763 47° Northeast  Level FlightAware Approximate
Wed 08:52:20 PM 39.5592 -84.2306 47° Northeast 154 177 4,400  Level Indianapolis Center
Wed 08:52:42 PM 39.5694 -84.2169 46° Northeast 150 173 4,600 387 Climbing Indianapolis Center
Wed 08:53:22 PM 39.5892 -84.1931 43° Northeast 151 174 4,800 393 Climbing Indianapolis Center
Wed 08:53:43 PM 39.5997 -84.1803 43° Northeast 151 174 5,000 590 Climbing Indianapolis Center
Wed 08:54:23 PM 39.6200 -84.1544 44° Northeast 152 175 5,400 590 Climbing Indianapolis Center
Wed 08:54:44 PM 39.6300 -84.1408 46° Northeast 149 171 5,600 581 Climbing Indianapolis Center
Wed 08:55:25 PM 39.6469 -84.1167 48° Northeast 147 169 6,000 500 Climbing Indianapolis Center
Wed 08:55:44 PM 39.6539 -84.1033 56° Northeast 141 162 6,100 393 Climbing Indianapolis Center
Wed 08:56:26 PM 39.6744 -84.0786 43° Northeast 144 166 6,400 393 Climbing Indianapolis Center
Wed 08:56:45 PM 39.6800 -84.0661 60° Northeast 135 155 6,500 492 Climbing Indianapolis Center
Wed 08:57:27 PM 39.7022 -84.0444 37° Northeast 141 162 6,900 590 Climbing Indianapolis Center
Wed 08:57:46 PM 39.7119 -84.0297 49° Northeast 139 160 7,100 97 Climbing Indianapolis Center
Wed 08:58:29 PM 39.7303 -84.0094 40° Northeast 139 160 7,000 -100 Descending Indianapolis Center
Wed 08:58:46 PM 39.7419 -83.9956 42° Northeast 148 170 7,000  Level Indianapolis Center
Wed 08:59:47 PM 39.7742 -83.9561 43° Northeast 155 178 7,000 57 Level Indianapolis Center
Wed 09:00:31 PM 39.7936 -83.9306 45° Northeast 152 175 7,100 98 Climbing Indianapolis Center
Wed 09:00:48 PM 39.8044 -83.9167 45° Northeast 158 182 7,100 -97 Level Indianapolis Center
Wed 09:01:33 PM 39.8256 -83.8892 45° Northeast 156 180 7,000 -98 Descending Indianapolis Center
Wed 09:01:49 PM 39.8347 -83.8769 46° Northeast 159 183 7,000  Level Indianapolis Center
Wed 09:02:34 PM 39.8578 -83.8492 43° Northeast 158 182 7,000  Level Indianapolis Center
Wed 09:02:50 PM 39.8694 -83.8353 42° Northeast 158 182 7,000  Level Indianapolis Center
Wed 09:03:35 PM 39.8892 -83.8086 46° Northeast 158 182 7,000 100 Level Indianapolis Center
Wed 09:03:50 PM 39.8997 -83.7956 43° Northeast 156 180 7,100 97 Climbing Indianapolis Center
Wed 09:04:37 PM 39.9200 -83.7672 47° Northeast 157 181 7,100 -56 Level Indianapolis Center
Wed 09:05:38 PM 39.9525 -83.7283 43° Northeast 157 181 7,000 -49 Descending Indianapolis Center
Wed 09:06:40 PM 39.9844 -83.6889 43° Northeast 156 180 7,000 44 Level Indianapolis Center
Wed 09:07:53 PM 40.0267 -83.6372 43° Northeast 159 183 7,100  Climbing Indianapolis Center
Wed 09:08:42 PM 40.0486 -83.6094 44° Northeast 157 181 7,000  Descending Indianapolis Center
Wed 09:09:44 PM 40.0856 -83.5622 44° Northeast 157 181 7,100 49 Climbing Indianapolis Center
Wed 09:10:45 PM 40.1167 -83.5217 45° Northeast 157 181 7,100 -49 Level Indianapolis Center
Wed 09:11:47 PM 40.1478 -83.4817 44° Northeast 156 180 7,000  Descending Indianapolis Center
Wed 09:12:48 PM 40.1789 -83.4414 45° Northeast 156 180 7,100 -79 Climbing Indianapolis Center
Wed 09:13:03 PM 40.1839 -83.4331 52° Northeast 153 176 6,900 -97 Descending Indianapolis Center
Wed 09:13:50 PM 40.2108 -83.4006 43° Northeast 159 183 7,000 56 Climbing Indianapolis Center
Wed 09:14:51 PM 40.2431 -83.3603 44° Northeast 158 182 7,000  Level Indianapolis Center
Wed 09:15:53 PM 40.2747 -83.3186 45° Northeast 159 183 7,000  Level Indianapolis Center
Wed 09:16:54 PM 40.3078 -83.2781 43° Northeast 161 185 7,000 49 Level Indianapolis Center
Wed 09:17:56 PM 40.3406 -83.2361 44° Northeast 163 188 7,100  Climbing Indianapolis Center
Wed 09:18:57 PM 40.3728 -83.1944 45° Northeast 162 186 7,000 -49 Descending Indianapolis Center
Wed 09:19:59 PM 40.4047 -83.1536 44° Northeast 159 183 7,000 -48 Level Indianapolis Center
Wed 09:21:01 PM 40.4319 -83.1050 54° Northeast 161 185 6,900 -49 Descending Indianapolis Center
Wed 09:22:02 PM 40.4578 -83.0561 55° Northeast 162 186 6,900  Level Indianapolis Center
Wed 09:23:04 PM 40.4897 -83.0017 52° Northeast 161 185 6,900  Level Indianapolis Center
Wed 09:24:05 PM 40.5156 -82.9547 54° Northeast 163 188 6,900  Level Indianapolis Center
Wed 09:25:07 PM 40.5414 -82.9058 55° Northeast 162 186 6,900  Level Indianapolis Center
Wed 09:26:08 PM 40.5678 -82.8578 54° Northeast 162 186 6,900  Level Indianapolis Center
Wed 09:27:10 PM 40.5939 -82.8097 54° Northeast 160 184 6,900  Level Indianapolis Center
Wed 09:28:11 PM 40.6208 -82.7639 52° Northeast 158 182 6,900  Level Indianapolis Center
Wed 09:29:13 PM 40.6467 -82.7147 55° Northeast 161 185 6,900 58 Level Indianapolis Center
Wed 09:29:55 PM 40.6625 -82.6881 52° Northeast 161 185 7,000 91 Climbing Cleveland Center
Wed 09:30:19 PM 40.6756 -82.6639 55° Northeast 160 184 7,000  Level Cleveland Center
Wed 09:31:20 PM 40.7036 -82.6153 53° Northeast 158 182 7,000  Level Cleveland Center
Wed 09:32:20 PM 40.7272 -82.5667 57° Northeast 160 184 7,000 -298 Level Cleveland Center
Wed 09:33:21 PM 40.7575 -82.5183 50° Northeast 169 194 6,400 -678 Descending Cleveland Center
Wed 09:34:15 PM 40.7833 -82.4669 56° Northeast 185 213 5,700 -678 Descending Cleveland Center
Wed 09:35:16 PM 40.8133 -82.4186 51° Northeast 177 204 5,100 -344 Descending Cleveland Center
Wed 09:36:17 PM 40.8414 -82.3589 58° Northeast 168 193 5,000 -50 Descending Cleveland Center
Wed 09:37:17 PM 40.8669 -82.3156 52° Northeast 156 180 5,000  Level Cleveland Center
Wed 09:38:18 PM 40.8928 -82.2669 55° Northeast 158 182 5,000  Level Cleveland Center
Wed 09:39:18 PM 40.9164 -82.2208 56° Northeast 157 181 5,000 99 Level Cleveland Center
Wed 09:40:19 PM 40.9442 -82.1747 51° Northeast 157 181 5,200  Climbing Cleveland Center
Wed 09:41:20 PM 40.9697 -82.1258 55° Northeast 159 183 5,000 -99 Descending Cleveland Center
Wed 09:42:20 PM 40.9975 -82.0769 53° Northeast 163 188 5,000 -149 Level Cleveland Center
Wed 09:43:21 PM 41.0397 -82.0450 30° Northeast 167 192 4,700 -295 Descending Cleveland Center
Wed 09:44:22 PM 41.0756 -82.0153 32° Northeast 164 189 4,400 -347 Descending Cleveland Center
Wed 09:45:22 PM 41.1175 -81.9861 28° Northeast 165 190 4,000 -595 Descending Cleveland Center
Wed 09:46:23 PM 41.1597 -81.9539 30° Northeast 176 203 3,200 -496 Descending Cleveland Center
Wed 09:47:23 PM 41.2017 -81.9217 30° Northeast 172 198 3,000 -149 Descending Cleveland Center
Wed 09:48:24 PM 41.2394 -81.8947 28° Northeast 151 174 2,900  Descending Cleveland Center
Wed 09:49:24 PM 41.2711 -81.8567 42° Northeast 146 168 3,000 50 Climbing Cleveland Center
Wed 09:50:25 PM 41.3008 -81.8186 44° Northeast 143 165 3,000 -49 Level Cleveland Center
Wed 09:51:26 PM 41.3344 -81.7833 38° Northeast 152 175 2,900 -248 Descending Cleveland Center
Wed 09:52:26 PM 41.3783 -81.7703 13° North 167 192 2,500 -545 Descending Cleveland Center
Wed 09:53:27 PM 41.4225 -81.7517 18° North 164 189 1,800 -469 Descending Cleveland Center
Wed 09:54:34 PM 41.4683 -81.7358 15° North 136 157 1,500 -331 Descending Cleveland Center
Wed 09:55:34 PM 41.4997 -81.7225 18° North 107 123 1,100 -400 Descending Cleveland Center
Wed 09:57:00 PM 41.5175 -81.6833 27° Northeast  Level Estimated
Wed 10:04:00 PM 41.5175 -81.6833 27° Northeast  Level Estimated

Login

Don't have an account? Register now (free) for customized features, flight alerts, and more!